sensor_id;sensor_type;location;lat;lon;timestamp;P1;durP1;ratioP1;P2;durP2;ratioP2
2305;SDS011;1161;51.922;8.896;2023-01-23T00:00:56;27.45;;;13.82;;
2305;SDS011;1161;51.922;8.896;2023-01-23T00:03:24;42.10;;;19.23;;
2305;SDS011;1161;51.922;8.896;2023-01-23T00:05:57;41.35;;;16.38;;
2305;SDS011;1161;51.922;8.896;2023-01-23T00:08:24;31.63;;;12.40;;
2305;SDS011;1161;51.922;8.896;2023-01-23T00:10:51;27.00;;;15.67;;
2305;SDS011;1161;51.922;8.896;2023-01-23T00:13:19;35.30;;;14.60;;
2305;SDS011;1161;51.922;8.896;2023-01-23T00:15:47;33.90;;;14.88;;
2305;SDS011;1161;51.922;8.896;2023-01-23T00:18:14;35.60;;;15.40;;
2305;SDS011;1161;51.922;8.896;2023-01-23T00:20:41;37.40;;;17.83;;
2305;SDS011;1161;51.922;8.896;2023-01-23T00:23:08;30.08;;;15.88;;
2305;SDS011;1161;51.922;8.896;2023-01-23T00:25:35;30.38;;;14.60;;
2305;SDS011;1161;51.922;8.896;2023-01-23T00:28:02;29.93;;;14.03;;
2305;SDS011;1161;51.922;8.896;2023-01-23T00:30:30;27.67;;;15.32;;
2305;SDS011;1161;51.922;8.896;2023-01-23T00:32:57;34.77;;;16.57;;
2305;SDS011;1161;51.922;8.896;2023-01-23T00:35:24;29.63;;;16.52;;
2305;SDS011;1161;51.922;8.896;2023-01-23T00:37:51;34.08;;;18.67;;
2305;SDS011;1161;51.922;8.896;2023-01-23T00:40:17;34.85;;;14.40;;
2305;SDS011;1161;51.922;8.896;2023-01-23T00:42:44;28.67;;;15.98;;
2305;SDS011;1161;51.922;8.896;2023-01-23T00:45:11;29.27;;;14.40;;
2305;SDS011;1161;51.922;8.896;2023-01-23T00:47:39;28.85;;;13.60;;
2305;SDS011;1161;51.922;8.896;2023-01-23T00:50:05;26.95;;;13.27;;
2305;SDS011;1161;51.922;8.896;2023-01-23T00:52:32;36.97;;;13.57;;
2305;SDS011;1161;51.922;8.896;2023-01-23T00:54:59;37.63;;;14.32;;
2305;SDS011;1161;51.922;8.896;2023-01-23T00:57:26;39.10;;;16.42;;
2305;SDS011;1161;51.922;8.896;2023-01-23T00:59:53;25.45;;;16.50;;
2305;SDS011;1161;51.922;8.896;2023-01-23T01:02:19;35.65;;;16.08;;
2305;SDS011;1161;51.922;8.896;2023-01-23T01:04:47;32.53;;;15.48;;
2305;SDS011;1161;51.922;8.896;2023-01-23T01:07:14;41.97;;;16.83;;
2305;SDS011;1161;51.922;8.896;2023-01-23T01:09:41;25.58;;;13.98;;
2305;SDS011;1161;51.922;8.896;2023-01-23T01:12:07;31.13;;;16.30;;
2305;SDS011;1161;51.922;8.896;2023-01-23T01:14:34;49.87;;;16.73;;
2305;SDS011;1161;51.922;8.896;2023-01-23T01:17:01;29.38;;;14.52;;
2305;SDS011;1161;51.922;8.896;2023-01-23T01:19:27;38.63;;;15.77;;
2305;SDS011;1161;51.922;8.896;2023-01-23T01:21:55;33.92;;;15.30;;
2305;SDS011;1161;51.922;8.896;2023-01-23T01:24:22;30.15;;;14.70;;
2305;SDS011;1161;51.922;8.896;2023-01-23T01:26:50;35.20;;;15.05;;
2305;SDS011;1161;51.922;8.896;2023-01-23T01:29:17;38.78;;;17.95;;
2305;SDS011;1161;51.922;8.896;2023-01-23T01:31:44;35.10;;;15.05;;
2305;SDS011;1161;51.922;8.896;2023-01-23T01:34:13;26.57;;;16.87;;
2305;SDS011;1161;51.922;8.896;2023-01-23T01:36:40;30.97;;;14.67;;
2305;SDS011;1161;51.922;8.896;2023-01-23T01:39:08;31.05;;;16.08;;
2305;SDS011;1161;51.922;8.896;2023-01-23T01:41:34;26.33;;;13.27;;
2305;SDS011;1161;51.922;8.896;2023-01-23T01:44:01;35.38;;;13.90;;
2305;SDS011;1161;51.922;8.896;2023-01-23T01:46:28;31.38;;;14.63;;
2305;SDS011;1161;51.922;8.896;2023-01-23T01:49:00;23.63;;;10.73;;
2305;SDS011;1161;51.922;8.896;2023-01-23T01:51:30;33.47;;;12.98;;
2305;SDS011;1161;51.922;8.896;2023-01-23T01:54:00;30.50;;;13.20;;
2305;SDS011;1161;51.922;8.896;2023-01-23T01:56:33;35.85;;;13.20;;
2305;SDS011;1161;51.922;8.896;2023-01-23T01:59:03;28.52;;;11.40;;
2305;SDS011;1161;51.922;8.896;2023-01-23T02:01:30;23.38;;;12.02;;
2305;SDS011;1161;51.922;8.896;2023-01-23T02:03:57;17.10;;;10.37;;
2305;SDS011;1161;51.922;8.896;2023-01-23T02:06:24;37.22;;;14.77;;
2305;SDS011;1161;51.922;8.896;2023-01-23T02:08:52;26.90;;;11.70;;
2305;SDS011;1161;51.922;8.896;2023-01-23T02:11:22;31.27;;;13.77;;
2305;SDS011;1161;51.922;8.896;2023-01-23T02:13:50;38.55;;;14.75;;
2305;SDS011;1161;51.922;8.896;2023-01-23T02:16:20;27.45;;;11.82;;
2305;SDS011;1161;51.922;8.896;2023-01-23T02:18:51;26.60;;;11.05;;
2305;SDS011;1161;51.922;8.896;2023-01-23T02:21:20;21.33;;;11.18;;
2305;SDS011;1161;51.922;8.896;2023-01-23T02:23:51;30.08;;;12.40;;
2305;SDS011;1161;51.922;8.896;2023-01-23T02:26:24;27.15;;;11.52;;
2305;SDS011;1161;51.922;8.896;2023-01-23T02:28:53;29.90;;;13.98;;
2305;SDS011;1161;51.922;8.896;2023-01-23T02:31:21;23.27;;;12.18;;
2305;SDS011;1161;51.922;8.896;2023-01-23T02:33:49;26.35;;;12.27;;
2305;SDS011;1161;51.922;8.896;2023-01-23T02:36:17;37.37;;;13.77;;
2305;SDS011;1161;51.922;8.896;2023-01-23T02:38:48;29.10;;;14.35;;
2305;SDS011;1161;51.922;8.896;2023-01-23T02:41:20;27.13;;;12.55;;
2305;SDS011;1161;51.922;8.896;2023-01-23T02:43:51;28.50;;;12.55;;
2305;SDS011;1161;51.922;8.896;2023-01-23T02:46:19;27.97;;;12.17;;
2305;SDS011;1161;51.922;8.896;2023-01-23T02:48:45;31.42;;;13.70;;
2305;SDS011;1161;51.922;8.896;2023-01-23T02:51:13;22.35;;;12.13;;
2305;SDS011;1161;51.922;8.896;2023-01-23T02:53:44;29.85;;;11.15;;
2305;SDS011;1161;51.922;8.896;2023-01-23T02:56:11;29.83;;;12.80;;
2305;SDS011;1161;51.922;8.896;2023-01-23T02:58:39;34.22;;;13.60;;
2305;SDS011;1161;51.922;8.896;2023-01-23T03:01:23;27.35;;;12.85;;
2305;SDS011;1161;51.922;8.896;2023-01-23T03:03:51;39.97;;;13.40;;
2305;SDS011;1161;51.922;8.896;2023-01-23T03:06:19;23.95;;;11.05;;
2305;SDS011;1161;51.922;8.896;2023-01-23T03:08:46;31.40;;;11.73;;
2305;SDS011;1161;51.922;8.896;2023-01-23T03:11:14;19.40;;;10.10;;
2305;SDS011;1161;51.922;8.896;2023-01-23T03:13:42;26.83;;;11.73;;
2305;SDS011;1161;51.922;8.896;2023-01-23T03:16:14;23.70;;;10.40;;
2305;SDS011;1161;51.922;8.896;2023-01-23T03:18:40;27.23;;;11.63;;
2305;SDS011;1161;51.922;8.896;2023-01-23T03:21:07;45.08;;;13.65;;
2305;SDS011;1161;51.922;8.896;2023-01-23T03:23:34;30.63;;;12.85;;
2305;SDS011;1161;51.922;8.896;2023-01-23T03:26:01;34.70;;;16.33;;
2305;SDS011;1161;51.922;8.896;2023-01-23T03:28:28;33.38;;;15.45;;
2305;SDS011;1161;51.922;8.896;2023-01-23T03:31:13;27.48;;;15.30;;
2305;SDS011;1161;51.922;8.896;2023-01-23T03:33:40;37.47;;;15.43;;
2305;SDS011;1161;51.922;8.896;2023-01-23T03:36:08;36.30;;;15.40;;
2305;SDS011;1161;51.922;8.896;2023-01-23T03:38:35;30.83;;;14.80;;
2305;SDS011;1161;51.922;8.896;2023-01-23T03:41:02;41.95;;;17.67;;
2305;SDS011;1161;51.922;8.896;2023-01-23T03:43:47;40.42;;;16.40;;
2305;SDS011;1161;51.922;8.896;2023-01-23T03:46:15;32.80;;;13.82;;
2305;SDS011;1161;51.922;8.896;2023-01-23T03:48:42;35.15;;;13.98;;
2305;SDS011;1161;51.922;8.896;2023-01-23T03:51:08;40.33;;;14.80;;
2305;SDS011;1161;51.922;8.896;2023-01-23T03:53:35;40.65;;;17.38;;
2305;SDS011;1161;51.922;8.896;2023-01-23T03:56:02;33.80;;;14.90;;
2305;SDS011;1161;51.922;8.896;2023-01-23T03:58:28;44.97;;;17.35;;
2305;SDS011;1161;51.922;8.896;2023-01-23T04:00:55;39.85;;;16.38;;
2305;SDS011;1161;51.922;8.896;2023-01-23T04:03:23;35.47;;;15.33;;
2305;SDS011;1161;51.922;8.896;2023-01-23T04:06:10;37.65;;;14.93;;
2305;SDS011;1161;51.922;8.896;2023-01-23T04:08:37;45.93;;;15.77;;
2305;SDS011;1161;51.922;8.896;2023-01-23T04:11:04;36.90;;;15.45;;
2305;SDS011;1161;51.922;8.896;2023-01-23T04:13:32;28.48;;;15.57;;
2305;SDS011;1161;51.922;8.896;2023-01-23T04:15:59;36.33;;;15.30;;
2305;SDS011;1161;51.922;8.896;2023-01-23T04:18:28;29.83;;;14.60;;
2305;SDS011;1161;51.922;8.896;2023-01-23T04:20:56;47.80;;;17.13;;
2305;SDS011;1161;51.922;8.896;2023-01-23T04:23:23;40.00;;;13.57;;
2305;SDS011;1161;51.922;8.896;2023-01-23T04:25:51;33.10;;;13.32;;
2305;SDS011;1161;51.922;8.896;2023-01-23T04:28:19;28.73;;;14.60;;
2305;SDS011;1161;51.922;8.896;2023-01-23T04:30:47;36.35;;;14.52;;
2305;SDS011;1161;51.922;8.896;2023-01-23T04:33:16;43.47;;;14.98;;
2305;SDS011;1161;51.922;8.896;2023-01-23T04:35:51;30.92;;;13.80;;
2305;SDS011;1161;51.922;8.896;2023-01-23T04:38:21;35.33;;;14.50;;
2305;SDS011;1161;51.922;8.896;2023-01-23T04:40:51;27.73;;;13.47;;
2305;SDS011;1161;51.922;8.896;2023-01-23T04:43:24;38.58;;;13.15;;
2305;SDS011;1161;51.922;8.896;2023-01-23T04:45:57;30.92;;;13.98;;
2305;SDS011;1161;51.922;8.896;2023-01-23T04:48:24;35.00;;;12.02;;
2305;SDS011;1161;51.922;8.896;2023-01-23T04:50:52;26.95;;;14.10;;
2305;SDS011;1161;51.922;8.896;2023-01-23T04:53:19;27.27;;;12.60;;
2305;SDS011;1161;51.922;8.896;2023-01-23T04:55:49;32.85;;;13.15;;
2305;SDS011;1161;51.922;8.896;2023-01-23T04:58:18;19.85;;;10.45;;
2305;SDS011;1161;51.922;8.896;2023-01-23T05:00:59;27.60;;;11.85;;
2305;SDS011;1161;51.922;8.896;2023-01-23T05:03:31;32.13;;;12.55;;
2305;SDS011;1161;51.922;8.896;2023-01-23T05:06:04;25.52;;;12.32;;
2305;SDS011;1161;51.922;8.896;2023-01-23T05:08:34;26.20;;;10.88;;
2305;SDS011;1161;51.922;8.896;2023-01-23T05:11:03;33.67;;;12.18;;
2305;SDS011;1161;51.922;8.896;2023-01-23T05:13:32;27.50;;;12.50;;
2305;SDS011;1161;51.922;8.896;2023-01-23T05:16:00;28.95;;;13.65;;
2305;SDS011;1161;51.922;8.896;2023-01-23T05:18:27;24.52;;;12.05;;
2305;SDS011;1161;51.922;8.896;2023-01-23T05:20:56;32.85;;;12.10;;
2305;SDS011;1161;51.922;8.896;2023-01-23T05:23:26;31.60;;;12.85;;
2305;SDS011;1161;51.922;8.896;2023-01-23T05:25:56;25.07;;;12.10;;
2305;SDS011;1161;51.922;8.896;2023-01-23T05:28:24;25.08;;;12.70;;
2305;SDS011;1161;51.922;8.896;2023-01-23T05:30:53;28.73;;;13.07;;
2305;SDS011;1161;51.922;8.896;2023-01-23T05:33:24;27.60;;;11.95;;
2305;SDS011;1161;51.922;8.896;2023-01-23T05:35:57;31.40;;;11.63;;
2305;SDS011;1161;51.922;8.896;2023-01-23T05:38:27;28.92;;;14.20;;
2305;SDS011;1161;51.922;8.896;2023-01-23T05:40:55;29.60;;;12.10;;
2305;SDS011;1161;51.922;8.896;2023-01-23T05:43:22;27.83;;;11.77;;
2305;SDS011;1161;51.922;8.896;2023-01-23T05:45:52;32.92;;;12.10;;
2305;SDS011;1161;51.922;8.896;2023-01-23T05:48:26;33.88;;;14.00;;
2305;SDS011;1161;51.922;8.896;2023-01-23T05:50:53;20.52;;;10.75;;
2305;SDS011;1161;51.922;8.896;2023-01-23T05:53:26;20.15;;;10.25;;
2305;SDS011;1161;51.922;8.896;2023-01-23T05:55:54;20.00;;;9.88;;
2305;SDS011;1161;51.922;8.896;2023-01-23T05:58:22;16.50;;;10.38;;
2305;SDS011;1161;51.922;8.896;2023-01-23T06:00:50;24.20;;;12.38;;
2305;SDS011;1161;51.922;8.896;2023-01-23T06:03:19;27.30;;;13.65;;
2305;SDS011;1161;51.922;8.896;2023-01-23T06:05:47;21.67;;;12.73;;
2305;SDS011;1161;51.922;8.896;2023-01-23T06:08:14;23.90;;;12.20;;
2305;SDS011;1161;51.922;8.896;2023-01-23T06:10:43;33.28;;;12.93;;
2305;SDS011;1161;51.922;8.896;2023-01-23T06:13:12;26.52;;;11.70;;
2305;SDS011;1161;51.922;8.896;2023-01-23T06:15:43;25.83;;;11.32;;
2305;SDS011;1161;51.922;8.896;2023-01-23T06:18:09;22.52;;;11.52;;
2305;SDS011;1161;51.922;8.896;2023-01-23T06:20:36;27.95;;;12.60;;
2305;SDS011;1161;51.922;8.896;2023-01-23T06:23:04;22.75;;;11.80;;
2305;SDS011;1161;51.922;8.896;2023-01-23T06:25:32;23.23;;;11.52;;
2305;SDS011;1161;51.922;8.896;2023-01-23T06:28:16;31.92;;;13.32;;
2305;SDS011;1161;51.922;8.896;2023-01-23T06:30:45;24.23;;;12.18;;
2305;SDS011;1161;51.922;8.896;2023-01-23T06:33:12;26.33;;;12.88;;
2305;SDS011;1161;51.922;8.896;2023-01-23T06:35:40;24.38;;;11.65;;
2305;SDS011;1161;51.922;8.896;2023-01-23T06:38:07;19.67;;;9.60;;
2305;SDS011;1161;51.922;8.896;2023-01-23T06:40:35;30.67;;;13.07;;
2305;SDS011;1161;51.922;8.896;2023-01-23T06:43:05;27.48;;;11.73;;
2305;SDS011;1161;51.922;8.896;2023-01-23T06:45:35;29.20;;;12.50;;
2305;SDS011;1161;51.922;8.896;2023-01-23T06:48:06;36.35;;;15.35;;
2305;SDS011;1161;51.922;8.896;2023-01-23T06:50:33;27.00;;;15.15;;
2305;SDS011;1161;51.922;8.896;2023-01-23T06:53:02;20.65;;;11.23;;
2305;SDS011;1161;51.922;8.896;2023-01-23T06:55:30;21.48;;;11.98;;
2305;SDS011;1161;51.922;8.896;2023-01-23T06:57:59;27.50;;;12.18;;
2305;SDS011;1161;51.922;8.896;2023-01-23T07:00:26;32.63;;;13.05;;
2305;SDS011;1161;51.922;8.896;2023-01-23T07:02:55;30.20;;;13.60;;
2305;SDS011;1161;51.922;8.896;2023-01-23T07:05:24;34.22;;;14.48;;
2305;SDS011;1161;51.922;8.896;2023-01-23T07:07:51;35.55;;;15.80;;
2305;SDS011;1161;51.922;8.896;2023-01-23T07:10:19;28.38;;;15.38;;
2305;SDS011;1161;51.922;8.896;2023-01-23T07:12:49;30.20;;;14.88;;
2305;SDS011;1161;51.922;8.896;2023-01-23T07:15:16;28.15;;;14.80;;
2305;SDS011;1161;51.922;8.896;2023-01-23T07:17:43;39.03;;;20.40;;
2305;SDS011;1161;51.922;8.896;2023-01-23T07:20:12;32.67;;;15.00;;
2305;SDS011;1161;51.922;8.896;2023-01-23T07:22:41;36.13;;;16.90;;
2305;SDS011;1161;51.922;8.896;2023-01-23T07:25:10;35.88;;;16.73;;
2305;SDS011;1161;51.922;8.896;2023-01-23T07:27:38;31.63;;;14.43;;
2305;SDS011;1161;51.922;8.896;2023-01-23T07:30:08;40.58;;;16.02;;
2305;SDS011;1161;51.922;8.896;2023-01-23T07:32:37;19.67;;;12.15;;
2305;SDS011;1161;51.922;8.896;2023-01-23T07:35:05;39.25;;;15.10;;
2305;SDS011;1161;51.922;8.896;2023-01-23T07:37:36;32.25;;;15.93;;
2305;SDS011;1161;51.922;8.896;2023-01-23T07:40:04;24.92;;;14.10;;
2305;SDS011;1161;51.922;8.896;2023-01-23T07:42:32;26.90;;;13.55;;
2305;SDS011;1161;51.922;8.896;2023-01-23T07:45:00;23.20;;;12.52;;
2305;SDS011;1161;51.922;8.896;2023-01-23T07:47:29;27.08;;;14.30;;
2305;SDS011;1161;51.922;8.896;2023-01-23T07:49:56;32.70;;;16.25;;
2305;SDS011;1161;51.922;8.896;2023-01-23T07:52:26;29.83;;;14.63;;
2305;SDS011;1161;51.922;8.896;2023-01-23T07:54:55;29.00;;;15.18;;
2305;SDS011;1161;51.922;8.896;2023-01-23T07:57:24;43.17;;;18.55;;
2305;SDS011;1161;51.922;8.896;2023-01-23T07:59:51;38.72;;;18.63;;
2305;SDS011;1161;51.922;8.896;2023-01-23T08:02:21;33.15;;;16.52;;
2305;SDS011;1161;51.922;8.896;2023-01-23T08:04:49;30.92;;;16.35;;
2305;SDS011;1161;51.922;8.896;2023-01-23T08:07:15;35.58;;;16.95;;
2305;SDS011;1161;51.922;8.896;2023-01-23T08:09:42;47.50;;;17.45;;
2305;SDS011;1161;51.922;8.896;2023-01-23T08:12:11;41.80;;;16.23;;
2305;SDS011;1161;51.922;8.896;2023-01-23T08:14:38;35.72;;;16.55;;
2305;SDS011;1161;51.922;8.896;2023-01-23T08:17:05;40.45;;;18.33;;
2305;SDS011;1161;51.922;8.896;2023-01-23T08:19:32;41.70;;;16.67;;
2305;SDS011;1161;51.922;8.896;2023-01-23T08:21:59;50.22;;;21.42;;
2305;SDS011;1161;51.922;8.896;2023-01-23T08:24:25;33.80;;;16.20;;
2305;SDS011;1161;51.922;8.896;2023-01-23T08:26:52;38.72;;;19.33;;
2305;SDS011;1161;51.922;8.896;2023-01-23T08:29:20;34.60;;;16.53;;
2305;SDS011;1161;51.922;8.896;2023-01-23T08:31:46;44.45;;;19.50;;
2305;SDS011;1161;51.922;8.896;2023-01-23T08:34:13;42.17;;;16.33;;
2305;SDS011;1161;51.922;8.896;2023-01-23T08:36:40;71.63;;;19.38;;
2305;SDS011;1161;51.922;8.896;2023-01-23T08:39:06;44.38;;;16.60;;
2305;SDS011;1161;51.922;8.896;2023-01-23T08:41:33;43.80;;;20.70;;
2305;SDS011;1161;51.922;8.896;2023-01-23T08:44:00;45.88;;;17.08;;
2305;SDS011;1161;51.922;8.896;2023-01-23T08:46:29;33.30;;;16.20;;
2305;SDS011;1161;51.922;8.896;2023-01-23T08:48:56;32.55;;;15.00;;
2305;SDS011;1161;51.922;8.896;2023-01-23T08:51:23;34.58;;;17.63;;
2305;SDS011;1161;51.922;8.896;2023-01-23T08:53:50;44.10;;;16.20;;
2305;SDS011;1161;51.922;8.896;2023-01-23T08:56:18;27.55;;;14.90;;
2305;SDS011;1161;51.922;8.896;2023-01-23T08:58:46;29.05;;;16.40;;
2305;SDS011;1161;51.922;8.896;2023-01-23T09:01:13;23.50;;;12.97;;
2305;SDS011;1161;51.922;8.896;2023-01-23T09:03:42;42.35;;;16.50;;
2305;SDS011;1161;51.922;8.896;2023-01-23T09:06:10;31.73;;;15.68;;
2305;SDS011;1161;51.922;8.896;2023-01-23T09:08:37;31.60;;;17.07;;
2305;SDS011;1161;51.922;8.896;2023-01-23T09:11:05;37.95;;;18.00;;
2305;SDS011;1161;51.922;8.896;2023-01-23T09:13:33;31.73;;;15.40;;
2305;SDS011;1161;51.922;8.896;2023-01-23T09:15:59;32.60;;;15.73;;
2305;SDS011;1161;51.922;8.896;2023-01-23T09:18:26;28.00;;;14.70;;
2305;SDS011;1161;51.922;8.896;2023-01-23T09:20:55;47.90;;;18.15;;
2305;SDS011;1161;51.922;8.896;2023-01-23T09:23:22;37.97;;;16.97;;
2305;SDS011;1161;51.922;8.896;2023-01-23T09:25:48;42.13;;;16.50;;
2305;SDS011;1161;51.922;8.896;2023-01-23T09:28:15;37.70;;;20.10;;
2305;SDS011;1161;51.922;8.896;2023-01-23T09:30:42;34.80;;;17.73;;
2305;SDS011;1161;51.922;8.896;2023-01-23T09:33:08;37.78;;;19.80;;
2305;SDS011;1161;51.922;8.896;2023-01-23T09:35:35;46.70;;;20.45;;
2305;SDS011;1161;51.922;8.896;2023-01-23T09:38:03;44.05;;;22.70;;
2305;SDS011;1161;51.922;8.896;2023-01-23T09:40:33;50.13;;;19.20;;
2305;SDS011;1161;51.922;8.896;2023-01-23T09:43:02;39.75;;;18.20;;
2305;SDS011;1161;51.922;8.896;2023-01-23T09:45:37;32.58;;;17.55;;
2305;SDS011;1161;51.922;8.896;2023-01-23T09:48:08;45.20;;;20.43;;
2305;SDS011;1161;51.922;8.896;2023-01-23T09:50:42;34.70;;;15.23;;
2305;SDS011;1161;51.922;8.896;2023-01-23T09:53:19;49.80;;;18.70;;
2305;SDS011;1161;51.922;8.896;2023-01-23T09:55:48;38.88;;;15.80;;
2305;SDS011;1161;51.922;8.896;2023-01-23T09:58:21;40.70;;;18.45;;
2305;SDS011;1161;51.922;8.896;2023-01-23T10:00:51;42.67;;;17.10;;
2305;SDS011;1161;51.922;8.896;2023-01-23T10:03:18;42.70;;;18.07;;
2305;SDS011;1161;51.922;8.896;2023-01-23T10:05:46;37.27;;;18.63;;
2305;SDS011;1161;51.922;8.896;2023-01-23T10:08:24;37.97;;;17.42;;
2305;SDS011;1161;51.922;8.896;2023-01-23T10:10:57;47.38;;;20.05;;
2305;SDS011;1161;51.922;8.896;2023-01-23T10:16:32;36.50;;;17.35;;
2305;SDS011;1161;51.922;8.896;2023-01-23T10:19:09;38.13;;;17.90;;
2305;SDS011;1161;51.922;8.896;2023-01-23T10:21:42;41.17;;;17.80;;
2305;SDS011;1161;51.922;8.896;2023-01-23T10:24:17;43.05;;;17.63;;
2305;SDS011;1161;51.922;8.896;2023-01-23T10:26:51;43.90;;;19.45;;
2305;SDS011;1161;51.922;8.896;2023-01-23T10:29:22;41.22;;;17.83;;
2305;SDS011;1161;51.922;8.896;2023-01-23T10:31:54;32.42;;;17.67;;
2305;SDS011;1161;51.922;8.896;2023-01-23T10:34:23;44.10;;;19.00;;
2305;SDS011;1161;51.922;8.896;2023-01-23T10:37:01;33.57;;;17.80;;
2305;SDS011;1161;51.922;8.896;2023-01-23T10:39:37;37.00;;;17.48;;
2305;SDS011;1161;51.922;8.896;2023-01-23T10:42:10;44.85;;;17.90;;
2305;SDS011;1161;51.922;8.896;2023-01-23T10:44:37;39.43;;;18.70;;
2305;SDS011;1161;51.922;8.896;2023-01-23T10:47:10;41.95;;;19.67;;
2305;SDS011;1161;51.922;8.896;2023-01-23T10:49:42;52.27;;;19.40;;
2305;SDS011;1161;51.922;8.896;2023-01-23T10:52:23;38.22;;;18.10;;
2305;SDS011;1161;51.922;8.896;2023-01-23T10:54:56;55.77;;;22.73;;
2305;SDS011;1161;51.922;8.896;2023-01-23T10:57:23;51.43;;;19.97;;
2305;SDS011;1161;51.922;8.896;2023-01-23T10:59:52;42.27;;;19.20;;
2305;SDS011;1161;51.922;8.896;2023-01-23T11:02:25;46.67;;;21.83;;
2305;SDS011;1161;51.922;8.896;2023-01-23T11:04:52;34.87;;;16.23;;
2305;SDS011;1161;51.922;8.896;2023-01-23T11:07:20;35.80;;;18.42;;
2305;SDS011;1161;51.922;8.896;2023-01-23T11:09:48;37.17;;;18.50;;
2305;SDS011;1161;51.922;8.896;2023-01-23T11:12:19;39.77;;;18.10;;
2305;SDS011;1161;51.922;8.896;2023-01-23T11:14:48;47.47;;;19.40;;
2305;SDS011;1161;51.922;8.896;2023-01-23T11:17:16;51.27;;;20.00;;
2305;SDS011;1161;51.922;8.896;2023-01-23T11:19:46;55.93;;;21.40;;
2305;SDS011;1161;51.922;8.896;2023-01-23T11:22:25;49.10;;;20.33;;
2305;SDS011;1161;51.922;8.896;2023-01-23T11:24:53;47.23;;;20.43;;
2305;SDS011;1161;51.922;8.896;2023-01-23T11:27:22;65.47;;;19.03;;
2305;SDS011;1161;51.922;8.896;2023-01-23T11:29:54;47.80;;;21.43;;
2305;SDS011;1161;51.922;8.896;2023-01-23T11:32:40;40.80;;;18.43;;
2305;SDS011;1161;51.922;8.896;2023-01-23T11:35:10;38.20;;;19.92;;
2305;SDS011;1161;51.922;8.896;2023-01-23T11:37:38;43.50;;;19.87;;
2305;SDS011;1161;51.922;8.896;2023-01-23T11:40:06;44.60;;;21.00;;
2305;SDS011;1161;51.922;8.896;2023-01-23T11:42:39;38.60;;;18.17;;
2305;SDS011;1161;51.922;8.896;2023-01-23T11:45:11;44.70;;;18.63;;
2305;SDS011;1161;51.922;8.896;2023-01-23T11:47:42;36.00;;;19.20;;
2305;SDS011;1161;51.922;8.896;2023-01-23T11:50:29;54.20;;;22.60;;
2305;SDS011;1161;51.922;8.896;2023-01-23T11:53:03;46.00;;;21.73;;
2305;SDS011;1161;51.922;8.896;2023-01-23T11:55:34;54.70;;;21.27;;
2305;SDS011;1161;51.922;8.896;2023-01-23T11:58:28;45.90;;;19.33;;
2305;SDS011;1161;51.922;8.896;2023-01-23T12:01:04;51.73;;;21.00;;
2305;SDS011;1161;51.922;8.896;2023-01-23T12:03:47;44.93;;;18.83;;
2305;SDS011;1161;51.922;8.896;2023-01-23T12:06:38;44.73;;;22.43;;
2305;SDS011;1161;51.922;8.896;2023-01-23T12:09:09;49.10;;;21.58;;
2305;SDS011;1161;51.922;8.896;2023-01-23T12:11:39;58.20;;;23.17;;
2305;SDS011;1161;51.922;8.896;2023-01-23T12:14:18;55.87;;;22.70;;
2305;SDS011;1161;51.922;8.896;2023-01-23T12:16:52;37.47;;;19.00;;
2305;SDS011;1161;51.922;8.896;2023-01-23T12:19:29;41.80;;;18.30;;
2305;SDS011;1161;51.922;8.896;2023-01-23T12:22:06;49.20;;;19.98;;
2305;SDS011;1161;51.922;8.896;2023-01-23T12:24:43;49.97;;;20.80;;
2305;SDS011;1161;51.922;8.896;2023-01-23T12:27:17;37.10;;;15.07;;
2305;SDS011;1161;51.922;8.896;2023-01-23T12:30:02;41.73;;;19.63;;
2305;SDS011;1161;51.922;8.896;2023-01-23T12:32:41;34.77;;;18.40;;
2305;SDS011;1161;51.922;8.896;2023-01-23T12:35:21;44.13;;;18.10;;
2305;SDS011;1161;51.922;8.896;2023-01-23T12:38:09;41.03;;;17.45;;
2305;SDS011;1161;51.922;8.896;2023-01-23T12:40:39;52.50;;;17.57;;
2305;SDS011;1161;51.922;8.896;2023-01-23T12:43:08;45.87;;;19.40;;
2305;SDS011;1161;51.922;8.896;2023-01-23T12:45:40;37.80;;;18.27;;
2305;SDS011;1161;51.922;8.896;2023-01-23T12:48:11;40.00;;;15.17;;
2305;SDS011;1161;51.922;8.896;2023-01-23T12:50:41;37.97;;;16.20;;
2305;SDS011;1161;51.922;8.896;2023-01-23T12:53:10;47.25;;;21.15;;
2305;SDS011;1161;51.922;8.896;2023-01-23T12:55:39;42.60;;;18.00;;
2305;SDS011;1161;51.922;8.896;2023-01-23T12:58:10;43.43;;;17.80;;
2305;SDS011;1161;51.922;8.896;2023-01-23T13:00:45;38.00;;;18.90;;
2305;SDS011;1161;51.922;8.896;2023-01-23T13:03:32;44.40;;;18.70;;
2305;SDS011;1161;51.922;8.896;2023-01-23T13:06:07;43.30;;;19.03;;
2305;SDS011;1161;51.922;8.896;2023-01-23T13:08:44;51.50;;;18.73;;
2305;SDS011;1161;51.922;8.896;2023-01-23T13:11:13;38.23;;;16.87;;
2305;SDS011;1161;51.922;8.896;2023-01-23T13:14:01;47.77;;;19.63;;
2305;SDS011;1161;51.922;8.896;2023-01-23T13:16:29;36.97;;;19.60;;
2305;SDS011;1161;51.922;8.896;2023-01-23T13:18:56;43.67;;;17.77;;
2305;SDS011;1161;51.922;8.896;2023-01-23T13:24:31;43.93;;;19.50;;
2305;SDS011;1161;51.922;8.896;2023-01-23T13:27:40;51.40;;;19.30;;
2305;SDS011;1161;51.922;8.896;2023-01-23T13:36:21;47.73;;;21.87;;
2305;SDS011;1161;51.922;8.896;2023-01-23T13:38:59;44.70;;;19.07;;
2305;SDS011;1161;51.922;8.896;2023-01-23T13:41:41;45.87;;;20.13;;
2305;SDS011;1161;51.922;8.896;2023-01-23T13:44:15;46.90;;;20.07;;
2305;SDS011;1161;51.922;8.896;2023-01-23T13:46:49;34.03;;;17.47;;
2305;SDS011;1161;51.922;8.896;2023-01-23T13:49:23;53.17;;;18.37;;
2305;SDS011;1161;51.922;8.896;2023-01-23T13:52:13;52.03;;;22.00;;
2305;SDS011;1161;51.922;8.896;2023-01-23T13:54:55;44.40;;;19.00;;
2305;SDS011;1161;51.922;8.896;2023-01-23T13:57:39;49.47;;;18.80;;
2305;SDS011;1161;51.922;8.896;2023-01-23T14:00:11;47.43;;;16.53;;
2305;SDS011;1161;51.922;8.896;2023-01-23T14:02:40;39.27;;;18.10;;
2305;SDS011;1161;51.922;8.896;2023-01-23T14:05:27;29.17;;;14.47;;
2305;SDS011;1161;51.922;8.896;2023-01-23T14:08:00;36.47;;;14.23;;
2305;SDS011;1161;51.922;8.896;2023-01-23T14:10:30;39.33;;;15.43;;
2305;SDS011;1161;51.922;8.896;2023-01-23T14:13:02;42.23;;;18.73;;
2305;SDS011;1161;51.922;8.896;2023-01-23T14:15:31;34.13;;;16.20;;
2305;SDS011;1161;51.922;8.896;2023-01-23T14:18:16;32.43;;;15.67;;
2305;SDS011;1161;51.922;8.896;2023-01-23T14:20:44;36.35;;;16.80;;
2305;SDS011;1161;51.922;8.896;2023-01-23T14:23:16;36.87;;;16.27;;
2305;SDS011;1161;51.922;8.896;2023-01-23T14:25:49;31.70;;;14.97;;
2305;SDS011;1161;51.922;8.896;2023-01-23T14:28:16;36.53;;;17.30;;
2305;SDS011;1161;51.922;8.896;2023-01-23T14:30:51;46.30;;;17.23;;
2305;SDS011;1161;51.922;8.896;2023-01-23T14:33:18;36.90;;;16.47;;
2305;SDS011;1161;51.922;8.896;2023-01-23T14:35:45;37.97;;;18.43;;
2305;SDS011;1161;51.922;8.896;2023-01-23T14:38:14;39.97;;;17.23;;
2305;SDS011;1161;51.922;8.896;2023-01-23T14:40:45;42.20;;;18.00;;
2305;SDS011;1161;51.922;8.896;2023-01-23T14:43:15;34.83;;;17.53;;
2305;SDS011;1161;51.922;8.896;2023-01-23T14:45:44;43.57;;;17.23;;
2305;SDS011;1161;51.922;8.896;2023-01-23T14:48:12;52.20;;;21.17;;
2305;SDS011;1161;51.922;8.896;2023-01-23T14:50:40;39.13;;;20.10;;
2305;SDS011;1161;51.922;8.896;2023-01-23T14:53:11;44.80;;;19.70;;
2305;SDS011;1161;51.922;8.896;2023-01-23T14:55:40;40.23;;;17.47;;
2305;SDS011;1161;51.922;8.896;2023-01-23T14:58:11;40.00;;;20.07;;
2305;SDS011;1161;51.922;8.896;2023-01-23T15:00:40;47.93;;;19.30;;
2305;SDS011;1161;51.922;8.896;2023-01-23T15:03:10;42.30;;;18.60;;
2305;SDS011;1161;51.922;8.896;2023-01-23T15:05:37;43.10;;;17.23;;
2305;SDS011;1161;51.922;8.896;2023-01-23T15:08:15;56.55;;;21.00;;
2305;SDS011;1161;51.922;8.896;2023-01-23T15:10:46;44.33;;;19.67;;
2305;SDS011;1161;51.922;8.896;2023-01-23T15:13:19;50.60;;;18.70;;
2305;SDS011;1161;51.922;8.896;2023-01-23T15:15:48;42.67;;;18.43;;
2305;SDS011;1161;51.922;8.896;2023-01-23T15:18:18;35.58;;;17.30;;